Main page
METAR-TAF:

METAR-TAF

Airports :

Suceava International Airport

Suceava, Romania

latitude: 47-39N, longitude: 026-15E, elevation: 351 m

Current weather observation

The report was made 33 minutes ago, at 20:30 UTC
Wind 2 kt from variable directions
Temperature 10°C
Humidity 66%
Pressure 1027 hPa
Visibility 10 km or more
no clouds below 1500 m and no cumulonimbus

METAR: LRSV 282030Z VRB02KT CAVOK 10/04 Q1027

Time: 00:03 (21:03 UTC)

Forecast

The report was made 1 hour and 3 minutes ago, at 20:00 UTC
Forecast valid from 28 at 21 UTC to 29 at 06 UTC
Wind 4 kt from variable directions
Visibility 10 km or more
no clouds below 1500 m and no cumulonimbus
Probability 40% :
Temporary
from 29 at 02 UTC to 29 at 05 UTC
Visibility: 3000 m
mist

TAF: LRSV 282000Z 2821/2906 VRB04KT CAVOK PROB40 TEMPO 2902/2905 3000 BR

Weather observations and forecasts of more than 4000 airports (METAR and TAF reports).

The available stations are represented by yellow and red dots on the map.

Hover mouse over dot to see the name of the station.

Then click to see weather observations and forecasts.

To change the map : click on the green buttons with a black cross to zoom in, on the green button with a dash to zoom out, or on the green arrows for adjacent maps.


METAR-TAF: